Time;durP1;ratioP1;P1;durP2;ratioP2;P2;SDS_P1;SDS_P2;PMS_P1;PMS_P2;Temp;Humidity;BMP_temperature;BMP_pressure;BME280_temperature;BME280_humidity;BME280_pressure;Samples;Min_cycle;Max_cycle;Signal;HPM_P1;HPM_P2
2021/08/19 00:01:19;;;;;;;6.47;4.90;;;17.50;99.90;;;;;;5092357;28;20569;-79
2021/08/19 00:03:47;;;;;;;5.38;4.68;;;17.50;99.90;;;;;;5092719;28;20206;-75
2021/08/19 00:06:15;;;;;;;5.57;5.00;;;17.50;99.90;;;;;;5092225;28;20260;-77
2021/08/19 00:08:43;;;;;;;5.63;4.20;;;17.40;99.90;;;;;;5092488;28;20213;-76
2021/08/19 00:11:10;;;;;;;6.28;4.03;;;17.30;99.90;;;;;;5092262;28;20213;-76
2021/08/19 00:13:38;;;;;;;5.68;4.18;;;17.30;99.90;;;;;;5091426;28;20668;-75
2021/08/19 00:16:06;;;;;;;5.07;4.35;;;17.30;99.90;;;;;;5092448;28;20254;-75
2021/08/19 00:18:34;;;;;;;9.40;5.68;;;17.20;99.90;;;;;;5091806;28;20210;-75
2021/08/19 00:21:03;;;;;;;5.68;4.57;;;17.00;99.90;;;;;;5092278;28;20255;-77
2021/08/19 00:23:30;;;;;;;7.07;4.80;;;17.00;99.90;;;;;;5091940;28;20259;-74
2021/08/19 00:25:57;;;;;;;5.13;4.63;;;16.90;99.90;;;;;;5092022;28;20221;-76
2021/08/19 00:28:24;;;;;;;4.65;4.13;;;16.90;99.90;;;;;;5091566;28;20255;-73
2021/08/19 00:30:51;;;;;;;6.00;5.40;;;17.00;99.90;;;;;;5092146;28;20201;-73
2021/08/19 00:33:18;;;;;;;7.57;5.10;;;16.90;99.90;;;;;;5092486;28;20723;-75
2021/08/19 00:35:45;;;;;;;7.43;4.88;;;16.90;99.90;;;;;;5091484;28;20205;-74
2021/08/19 00:38:13;;;;;;;6.18;4.75;;;16.90;99.90;;;;;;5091955;28;20251;-73
2021/08/19 00:40:40;;;;;;;5.65;4.85;;;16.90;99.90;;;;;;5091225;28;20209;-75
2021/08/19 00:43:07;;;;;;;7.97;5.85;;;16.90;99.90;;;;;;5092088;28;20263;-74
2021/08/19 00:45:35;;;;;;;5.47;4.97;;;16.90;99.90;;;;;;5090925;28;20712;-74
2021/08/19 00:48:02;;;;;;;9.32;5.70;;;16.80;99.90;;;;;;5091826;28;20202;-76
2021/08/19 00:50:30;;;;;;;6.32;5.72;;;16.70;99.90;;;;;;5091564;28;20692;-76
2021/08/19 00:52:57;;;;;;;5.60;4.30;;;16.80;99.90;;;;;;5091349;28;20734;-76
2021/08/19 00:55:26;;;;;;;10.82;4.80;;;16.80;99.90;;;;;;5091118;28;20254;-77
2021/08/19 00:57:54;;;;;;;7.72;4.75;;;16.80;99.90;;;;;;5091367;28;20738;-78
2021/08/19 01:00:22;;;;;;;9.40;5.57;;;16.90;99.90;;;;;;5091661;28;20202;-80
2021/08/19 01:02:51;;;;;;;6.88;4.53;;;16.90;99.90;;;;;;5091484;28;20255;-75
2021/08/19 01:05:19;;;;;;;5.82;4.63;;;16.90;99.90;;;;;;5091538;28;20205;-77
2021/08/19 01:07:47;;;;;;;4.93;4.30;;;17.00;99.90;;;;;;5090989;28;20212;-74
2021/08/19 01:10:14;;;;;;;6.57;4.53;;;17.00;99.90;;;;;;5091764;28;20209;-78
2021/08/19 01:12:43;;;;;;;6.93;5.07;;;16.90;99.90;;;;;;5091249;28;20263;-74
2021/08/19 01:15:12;;;;;;;8.45;5.38;;;16.90;99.90;;;;;;5090857;28;20202;-76
2021/08/19 01:17:39;;;;;;;6.38;5.05;;;17.00;99.90;;;;;;5090543;28;20722;-78
2021/08/19 01:20:08;;;;;;;7.00;4.88;;;17.10;99.90;;;;;;5091169;28;20205;-79
2021/08/19 01:22:35;;;;;;;7.10;4.88;;;17.20;99.90;;;;;;5090572;28;20258;-79
2021/08/19 01:25:02;;;;;;;4.80;4.30;;;17.20;99.90;;;;;;5090421;28;20209;-79
2021/08/19 01:27:31;;;;;;;6.22;4.82;;;17.20;99.90;;;;;;5090365;28;20781;-75
2021/08/19 01:29:58;;;;;;;4.78;3.97;;;17.30;99.90;;;;;;5090843;28;20287;-78
2021/08/19 01:32:26;;;;;;;5.43;3.80;;;17.30;99.90;;;;;;5090459;28;20636;-76
2021/08/19 01:34:53;;;;;;;7.25;5.15;;;17.30;99.90;;;;;;5090737;28;20205;-76
2021/08/19 01:37:21;;;;;;;5.68;4.32;;;17.40;99.90;;;;;;5091308;28;20217;-75
2021/08/19 01:39:48;;;;;;;8.43;5.25;;;17.50;99.90;;;;;;5091070;28;20296;-73
2021/08/19 01:42:16;;;;;;;7.20;4.60;;;17.50;99.90;;;;;;5090800;28;20209;-76
2021/08/19 01:44:45;;;;;;;5.85;5.25;;;17.60;99.90;;;;;;5088538;28;20644;-74
2021/08/19 01:47:14;;;;;;;7.75;5.35;;;17.60;99.90;;;;;;5090783;28;20229;-74
2021/08/19 01:49:42;;;;;;;5.20;4.15;;;17.60;99.90;;;;;;5090356;28;20205;-76
2021/08/19 01:52:11;;;;;;;5.18;4.50;;;17.60;99.90;;;;;;5077068;28;20228;-76
2021/08/19 01:54:38;;;;;;;7.10;4.88;;;17.50;99.90;;;;;;5104403;28;20251;-74
2021/08/19 01:57:05;;;;;;;6.15;4.10;;;17.50;99.90;;;;;;5090630;28;20628;-77
2021/08/19 01:59:32;;;;;;;6.50;4.68;;;17.50;99.90;;;;;;5090292;28;20254;-77
2021/08/19 02:02:01;;;;;;;5.55;4.35;;;17.50;99.90;;;;;;5100496;28;20269;-73
2021/08/19 02:04:29;;;;;;;6.95;5.60;;;17.50;99.90;;;;;;5093796;28;20241;-74
2021/08/19 02:06:56;;;;;;;4.65;4.18;;;17.50;99.90;;;;;;5090472;28;20688;-74
2021/08/19 02:09:23;;;;;;;6.35;5.28;;;17.60;99.90;;;;;;5089814;28;20209;-72
2021/08/19 02:11:50;;;;;;;8.15;5.15;;;17.60;99.90;;;;;;5090485;28;20209;-75
2021/08/19 02:14:17;;;;;;;5.10;4.40;;;17.60;99.90;;;;;;5090801;28;20205;-73
2021/08/19 02:16:44;;;;;;;7.20;4.93;;;17.60;99.90;;;;;;5089651;28;20250;-75
2021/08/19 02:19:13;;;;;;;5.80;4.60;;;17.50;99.90;;;;;;5101611;28;20261;-73
2021/08/19 02:21:40;;;;;;;7.28;4.88;;;17.40;99.90;;;;;;5092783;28;20201;-72
2021/08/19 02:24:07;;;;;;;6.97;5.03;;;17.40;99.90;;;;;;5090513;28;20205;-72
2021/08/19 02:26:34;;;;;;;6.15;4.63;;;17.40;99.90;;;;;;5089809;28;20282;-79
2021/08/19 02:29:01;;;;;;;6.97;4.57;;;17.60;99.90;;;;;;5090286;28;20726;-76
2021/08/19 02:31:28;;;;;;;8.07;5.22;;;17.60;99.90;;;;;;5090044;28;20542;-72
2021/08/19 02:33:55;;;;;;;6.32;4.80;;;17.60;99.90;;;;;;5090315;28;20665;-76
2021/08/19 02:36:23;;;;;;;5.40;4.72;;;17.60;99.90;;;;;;5091179;28;20209;-75
2021/08/19 02:38:50;;;;;;;7.53;5.15;;;17.60;99.90;;;;;;5094601;28;20254;-74
2021/08/19 02:41:17;;;;;;;7.38;4.82;;;17.70;99.90;;;;;;5094338;28;20730;-74
2021/08/19 02:43:44;;;;;;;13.57;4.97;;;17.70;99.90;;;;;;5093572;28;20205;-74
2021/08/19 02:46:11;;;;;;;7.53;4.85;;;17.70;99.90;;;;;;5094234;28;20286;-75
2021/08/19 02:48:39;;;;;;;6.15;4.32;;;17.70;99.90;;;;;;5093479;28;20665;-76
2021/08/19 02:51:06;;;;;;;5.30;4.60;;;17.70;99.90;;;;;;5094184;28;20362;-76
2021/08/19 02:53:34;;;;;;;7.20;6.22;;;17.80;99.90;;;;;;5106383;28;20625;-73
2021/08/19 02:56:02;;;;;;;6.75;4.35;;;17.80;99.90;;;;;;5094586;28;20665;-73
2021/08/19 02:58:29;;;;;;;4.35;3.95;;;17.80;99.90;;;;;;5093857;28;20216;-76
2021/08/19 03:00:56;;;;;;;5.38;4.43;;;17.80;99.90;;;;;;5093841;28;20266;-73
2021/08/19 03:03:23;;;;;;;6.60;5.80;;;17.80;99.90;;;;;;5093697;28;20263;-74
2021/08/19 03:05:50;;;;;;;8.80;4.50;;;17.80;99.90;;;;;;5093969;28;20262;-76
2021/08/19 03:08:17;;;;;;;5.00;4.50;;;17.80;99.90;;;;;;5094292;28;20197;-73
2021/08/19 03:10:45;;;;;;;5.60;5.03;;;17.70;99.90;;;;;;5092807;28;20216;-74
2021/08/19 03:13:12;;;;;;;6.00;4.57;;;17.70;99.90;;;;;;5094054;28;20202;-77
2021/08/19 03:15:39;;;;;;;5.25;4.32;;;17.70;99.90;;;;;;5093402;28;20255;-75
2021/08/19 03:18:06;;;;;;;5.07;4.53;;;17.70;99.90;;;;;;5093521;28;20262;-75
2021/08/19 03:20:33;;;;;;;9.27;5.63;;;17.90;99.90;;;;;;5093113;28;20201;-76
2021/08/19 03:23:01;;;;;;;4.72;4.25;;;17.80;99.90;;;;;;5093230;28;20206;-72
2021/08/19 03:25:28;;;;;;;5.88;4.40;;;17.80;99.90;;;;;;5092820;28;20220;-73
2021/08/19 03:28:00;;;;;;;7.07;4.88;;;17.90;99.90;;;;;;5093023;28;20233;-73
2021/08/19 03:30:27;;;;;;;6.40;4.75;;;17.90;99.90;;;;;;5093019;28;20209;-77
2021/08/19 03:32:54;;;;;;;5.85;5.07;;;17.90;99.90;;;;;;5093344;28;20205;-76
2021/08/19 03:35:22;;;;;;;5.10;4.22;;;17.80;99.90;;;;;;5093456;28;20258;-72
2021/08/19 03:37:49;;;;;;;5.13;4.57;;;17.80;99.90;;;;;;5093543;28;20259;-75
2021/08/19 03:40:17;;;;;;;6.35;4.82;;;17.80;99.90;;;;;;5092647;28;20251;-76
2021/08/19 03:42:44;;;;;;;8.13;4.70;;;17.80;99.90;;;;;;5092878;28;20214;-76
2021/08/19 03:45:15;;;;;;;7.15;5.15;;;17.80;99.90;;;;;;5092709;28;20209;-73
2021/08/19 03:47:43;;;;;;;4.60;3.83;;;17.80;99.90;;;;;;5092140;28;20287;-73
2021/08/19 03:50:11;;;;;;;7.47;4.93;;;17.90;99.90;;;;;;5092620;28;20205;-74
2021/08/19 03:52:38;;;;;;;4.38;3.97;;;17.90;99.90;;;;;;5097851;28;20213;-75
2021/08/19 03:55:06;;;;;;;6.18;4.50;;;17.80;99.90;;;;;;5101698;28;20201;-77
2021/08/19 03:57:33;;;;;;;6.85;5.32;;;17.80;99.90;;;;;;5092481;28;20201;-76
2021/08/19 04:00:00;;;;;;;7.47;5.60;;;17.90;99.90;;;;;;5093014;28;20286;-76
2021/08/19 04:02:29;;;;;;;5.38;4.22;;;17.90;99.90;;;;;;5092453;28;20206;-75
2021/08/19 04:04:56;;;;;;;7.95;4.97;;;17.90;99.90;;;;;;5092494;28;20677;-75
2021/08/19 04:07:23;;;;;;;6.65;4.53;;;17.90;99.90;;;;;;5092298;28;20241;-72
2021/08/19 04:09:50;;;;;;;9.55;5.95;;;17.90;99.90;;;;;;5093229;28;20258;-76
2021/08/19 04:12:17;;;;;;;5.53;4.55;;;17.90;99.90;;;;;;5093075;28;20239;-73
2021/08/19 04:14:44;;;;;;;5.03;4.53;;;17.80;99.90;;;;;;5091890;28;20205;-72
2021/08/19 04:17:11;;;;;;;7.10;4.40;;;17.70;99.90;;;;;;5092489;28;20201;-73
2021/08/19 04:19:39;;;;;;;5.82;4.85;;;17.70;99.90;;;;;;5091908;28;20250;-76
2021/08/19 04:22:06;;;;;;;6.38;4.55;;;17.70;99.90;;;;;;5092317;28;20669;-73
2021/08/19 04:24:33;;;;;;;6.22;3.80;;;17.80;99.90;;;;;;5091895;28;20206;-76
2021/08/19 04:27:00;;;;;;;5.65;4.68;;;17.80;99.90;;;;;;5092501;28;20229;-74
2021/08/19 04:29:29;;;;;;;6.40;4.78;;;17.90;99.90;;;;;;5091583;28;20202;-80
2021/08/19 04:31:57;;;;;;;5.53;4.93;;;17.90;99.90;;;;;;5092222;28;20202;-73
2021/08/19 04:34:24;;;;;;;7.80;5.43;;;17.80;99.90;;;;;;5092014;28;20239;-73
2021/08/19 04:36:52;;;;;;;6.97;4.90;;;17.70;99.90;;;;;;5091866;28;20630;-73
2021/08/19 04:39:19;;;;;;;5.10;4.60;;;17.80;99.90;;;;;;5092174;28;20205;-74
2021/08/19 04:41:46;;;;;;;6.20;4.93;;;17.80;99.90;;;;;;5091708;28;20201;-73
2021/08/19 04:44:13;;;;;;;5.95;4.72;;;17.70;99.90;;;;;;5091864;28;20563;-76
2021/08/19 04:46:40;;;;;;;4.50;4.10;;;17.60;99.90;;;;;;5091316;28;20229;-75
2021/08/19 04:49:07;;;;;;;8.43;4.30;;;17.70;99.90;;;;;;5092108;28;20352;-76
2021/08/19 04:51:34;;;;;;;5.13;4.22;;;17.70;99.90;;;;;;5091173;28;20209;-77
2021/08/19 04:54:03;;;;;;;5.43;4.88;;;17.80;99.90;;;;;;5105952;28;20291;-76
2021/08/19 04:56:36;;;;;;;5.75;4.57;;;17.80;99.90;;;;;;5091259;28;20632;-79
2021/08/19 04:59:03;;;;;;;7.15;5.07;;;17.90;99.90;;;;;;5091117;28;20210;-77
2021/08/19 05:01:30;;;;;;;5.35;4.15;;;17.80;99.90;;;;;;5091300;28;20259;-74
2021/08/19 05:03:58;;;;;;;7.53;5.07;;;17.80;99.90;;;;;;5091311;28;20205;-74
2021/08/19 05:06:26;;;;;;;7.50;5.15;;;17.80;99.90;;;;;;5090732;28;20205;-76
2021/08/19 05:08:53;;;;;;;5.10;4.60;;;17.90;99.90;;;;;;5091705;28;20334;-75
2021/08/19 05:11:21;;;;;;;5.63;4.60;;;17.90;99.90;;;;;;5091458;28;20209;-72
2021/08/19 05:13:48;;;;;;;5.88;5.13;;;18.00;99.90;;;;;;5091586;28;20205;-75
2021/08/19 05:16:15;;;;;;;5.53;4.82;;;17.90;99.90;;;;;;5091353;28;20258;-74
2021/08/19 05:18:43;;;;;;;6.68;4.93;;;17.90;99.90;;;;;;5091082;28;20217;-75
2021/08/19 05:21:10;;;;;;;8.05;4.80;;;17.90;99.90;;;;;;5090865;28;20561;-74
2021/08/19 05:23:37;;;;;;;5.10;3.90;;;17.90;99.90;;;;;;5090751;28;20209;-78
2021/08/19 05:26:05;;;;;;;5.90;4.97;;;18.00;99.90;;;;;;5090737;28;20738;-77
2021/08/19 05:28:33;;;;;;;5.82;4.40;;;18.00;99.90;;;;;;5091092;28;20286;-79
2021/08/19 05:31:01;;;;;;;4.38;3.95;;;18.00;99.90;;;;;;5091304;28;20212;-74
2021/08/19 05:33:28;;;;;;;6.75;4.00;;;18.00;99.90;;;;;;5090254;28;20263;-77
2021/08/19 05:35:55;;;;;;;7.55;4.63;;;18.10;99.90;;;;;;5090824;28;20242;-74
2021/08/19 05:38:22;;;;;;;5.40;4.68;;;18.10;99.90;;;;;;5090621;28;20802;-73
2021/08/19 05:40:49;;;;;;;7.15;4.13;;;18.10;99.90;;;;;;5091187;28;20205;-74
2021/08/19 05:43:16;;;;;;;4.93;4.43;;;18.10;99.90;;;;;;5090943;28;20213;-78
2021/08/19 05:45:44;;;;;;;5.47;4.93;;;18.10;99.90;;;;;;5090782;28;20776;-73
2021/08/19 05:48:11;;;;;;;7.75;5.35;;;18.10;99.90;;;;;;5090830;28;20611;-76
2021/08/19 05:50:38;;;;;;;7.88;5.07;;;18.20;99.90;;;;;;5090292;28;20246;-73
2021/08/19 05:53:07;;;;;;;7.43;5.55;;;18.30;99.90;;;;;;5099772;28;20247;-78
2021/08/19 05:55:34;;;;;;;7.50;5.00;;;18.30;99.90;;;;;;5080883;28;20272;-76
2021/08/19 05:58:01;;;;;;;6.63;4.43;;;18.20;99.90;;;;;;5091114;28;20269;-76
2021/08/19 06:00:28;;;;;;;5.53;4.70;;;18.20;99.90;;;;;;5090548;28;20205;-76
2021/08/19 06:02:56;;;;;;;5.70;4.70;;;18.20;99.90;;;;;;5092974;28;20226;-76
2021/08/19 06:05:23;;;;;;;5.72;3.97;;;18.20;99.90;;;;;;5095743;28;20209;-76
2021/08/19 06:07:50;;;;;;;6.00;4.05;;;18.30;99.90;;;;;;5092311;28;20765;-76
2021/08/19 06:10:17;;;;;;;8.80;4.20;;;18.40;99.90;;;;;;5096329;28;20212;-76
2021/08/19 06:12:44;;;;;;;9.23;4.65;;;18.40;99.90;;;;;;5089270;28;20247;-76
2021/08/19 06:15:11;;;;;;;5.05;4.03;;;18.60;99.90;;;;;;5090086;28;20730;-77
2021/08/19 06:17:38;;;;;;;6.93;4.65;;;18.70;99.90;;;;;;5089966;28;20255;-77
2021/08/19 06:20:08;;;;;;;6.47;4.47;;;18.70;99.90;;;;;;5090051;28;20202;-76
2021/08/19 06:22:35;;;;;;;6.00;4.18;;;18.70;99.90;;;;;;5089926;28;20210;-76
2021/08/19 06:25:03;;;;;;;6.53;5.03;;;18.80;99.90;;;;;;5083488;28;20206;-77
2021/08/19 06:27:30;;;;;;;5.63;4.22;;;18.90;99.90;;;;;;5089687;28;20774;-77
2021/08/19 06:29:57;;;;;;;9.60;5.38;;;18.90;99.90;;;;;;5090024;28;20614;-75
2021/08/19 06:32:23;;;;;;;5.75;4.18;;;18.90;99.90;;;;;;5088888;28;20278;-75
2021/08/19 06:34:50;;;;;;;6.60;5.70;;;18.90;99.90;;;;;;5086299;28;20202;-75
2021/08/19 06:37:19;;;;;;;6.88;4.28;;;18.90;99.90;;;;;;5090293;28;20216;-75
2021/08/19 06:39:46;;;;;;;5.18;4.57;;;19.00;99.90;;;;;;5098337;28;20660;-76
2021/08/19 06:42:13;;;;;;;7.32;4.40;;;19.10;99.90;;;;;;5089864;28;20202;-76
2021/08/19 06:44:40;;;;;;;6.63;4.60;;;19.10;99.90;;;;;;5089948;28;20213;-77
2021/08/19 06:47:07;;;;;;;8.75;4.75;;;19.10;99.90;;;;;;5089817;28;20201;-76
2021/08/19 06:49:34;;;;;;;6.20;4.50;;;19.10;99.90;;;;;;5089769;28;20209;-76
2021/08/19 06:52:01;;;;;;;5.60;3.88;;;19.20;99.90;;;;;;5089399;28;20762;-77
2021/08/19 06:54:29;;;;;;;5.13;4.38;;;19.20;99.90;;;;;;5103650;28;20689;-77
2021/08/19 06:56:56;;;;;;;7.13;4.22;;;19.30;99.90;;;;;;5089989;28;20205;-77
2021/08/19 06:59:23;;;;;;;4.82;4.32;;;19.30;99.90;;;;;;5089197;28;20205;-77
2021/08/19 07:01:50;;;;;;;5.38;4.57;;;19.40;99.90;;;;;;5089741;28;20213;-78
2021/08/19 07:04:17;;;;;;;4.18;3.60;;;19.50;99.90;;;;;;5090130;28;20201;-77
2021/08/19 07:06:45;;;;;;;4.20;3.80;;;19.70;99.90;;;;;;5089782;28;20202;-76
2021/08/19 07:09:12;;;;;;;3.38;3.08;;;19.80;99.90;;;;;;5089556;28;20279;-76
2021/08/19 07:11:41;;;;;;;5.93;3.70;;;20.10;99.90;;;;;;5089425;28;20283;-75
2021/08/19 07:14:08;;;;;;;6.63;4.05;;;20.20;99.90;;;;;;5092809;28;20254;-76
2021/08/19 07:16:35;;;;;;;5.40;4.13;;;20.00;99.90;;;;;;5089205;28;20251;-75
2021/08/19 07:19:02;;;;;;;4.88;3.95;;;20.10;99.90;;;;;;5089568;28;20669;-75
2021/08/19 07:21:29;;;;;;;5.10;3.78;;;20.10;99.90;;;;;;5089306;28;20210;-76
2021/08/19 07:23:56;;;;;;;5.40;2.70;;;20.20;99.90;;;;;;5091150;28;20213;-76
2021/08/19 07:26:24;;;;;;;3.22;2.85;;;20.40;99.90;;;;;;5092695;28;20669;-75
2021/08/19 07:28:54;;;;;;;3.63;3.08;;;20.60;99.90;;;;;;5096879;28;20320;-75
2021/08/19 07:31:21;;;;;;;4.10;3.50;;;20.80;99.90;;;;;;5089511;28;20201;-76
2021/08/19 07:33:48;;;;;;;7.78;3.85;;;20.70;99.90;;;;;;5098328;28;20673;-75
2021/08/19 07:36:15;;;;;;;5.13;2.97;;;20.80;99.90;;;;;;5093084;28;20205;-75
2021/08/19 07:38:42;;;;;;;5.13;3.88;;;20.80;99.90;;;;;;5091314;28;20557;-75
2021/08/19 07:41:10;;;;;;;4.60;3.75;;;20.80;99.90;;;;;;5092911;28;20275;-76
2021/08/19 07:43:36;;;;;;;7.28;3.83;;;20.30;99.90;;;;;;5092286;28;20278;-75
2021/08/19 07:46:05;;;;;;;3.65;3.25;;;20.20;99.90;;;;;;5092828;28;20205;-75
2021/08/19 07:48:32;;;;;;;5.50;3.28;;;20.60;99.90;;;;;;5092027;28;20282;-75
2021/08/19 07:50:59;;;;;;;4.80;3.42;;;20.80;99.90;;;;;;5101488;28;20202;-75
2021/08/19 07:53:26;;;;;;;3.88;3.42;;;20.90;99.90;;;;;;5104522;28;20208;-75
2021/08/19 07:55:53;;;;;;;4.65;3.17;;;21.20;99.90;;;;;;5094754;28;20213;-75
2021/08/19 07:58:20;;;;;;;5.47;3.65;;;20.90;99.90;;;;;;5092933;28;20205;-75
2021/08/19 08:00:47;;;;;;;7.22;4.20;;;21.00;99.90;;;;;;5091997;28;20266;-76
2021/08/19 08:03:15;;;;;;;7.15;3.50;;;21.20;99.90;;;;;;5092806;28;20206;-75
2021/08/19 08:05:42;;;;;;;4.38;3.67;;;21.00;99.90;;;;;;5091785;28;20198;-76
2021/08/19 08:08:11;;;;;;;4.18;3.65;;;21.40;99.90;;;;;;5092646;28;20726;-75
2021/08/19 08:10:39;;;;;;;7.32;3.97;;;21.70;99.90;;;;;;5091807;28;20734;-76
2021/08/19 08:13:07;;;;;;;4.40;3.72;;;21.80;99.90;;;;;;5092219;28;20209;-76
2021/08/19 08:15:34;;;;;;;5.60;4.03;;;21.70;99.90;;;;;;5091426;28;20212;-76
2021/08/19 08:18:03;;;;;;;9.90;3.42;;;21.30;99.90;;;;;;5092373;28;20259;-76
2021/08/19 08:20:32;;;;;;;4.03;3.22;;;21.70;99.90;;;;;;5091612;28;20209;-76
2021/08/19 08:22:59;;;;;;;4.38;3.60;;;21.40;99.90;;;;;;5092322;28;20210;-76
2021/08/19 08:25:26;;;;;;;3.80;3.33;;;21.50;99.90;;;;;;5093367;28;20235;-77
2021/08/19 08:27:59;;;;;;;4.93;3.65;;;21.70;99.90;;;;;;5096665;28;20282;-77
2021/08/19 08:30:27;;;;;;;5.28;4.72;;;22.10;99.90;;;;;;5091272;28;20287;-76
2021/08/19 08:32:54;;;;;;;3.67;3.38;;;22.30;99.90;;;;;;5108106;28;20258;-76
2021/08/19 08:35:21;;;;;;;6.45;3.70;;;21.70;99.90;;;;;;5109570;28;20201;-76
2021/08/19 08:37:50;;;;;;;4.65;3.40;;;22.10;99.90;;;;;;5098944;28;20468;-75
2021/08/19 08:40:18;;;;;;;4.63;4.18;;;22.20;99.90;;;;;;5092240;28;20214;-76
2021/08/19 08:42:46;;;;;;;4.53;3.55;;;22.60;99.90;;;;;;5091231;28;20356;-77
2021/08/19 08:45:14;;;;;;;4.68;3.30;;;22.70;99.90;;;;;;5091491;28;20254;-76
2021/08/19 08:47:41;;;;;;;3.40;3.10;;;22.60;99.90;;;;;;5086502;28;21067;-76
2021/08/19 08:50:11;;;;;;;4.40;3.53;;;22.30;99.90;;;;;;5091108;28;20673;-77
2021/08/19 08:52:39;;;;;;;5.00;3.85;;;22.20;99.90;;;;;;5096330;28;20211;-76
2021/08/19 08:55:09;;;;;;;3.55;3.25;;;22.30;99.90;;;;;;5094412;28;20205;-76
2021/08/19 08:57:37;;;;;;;4.07;3.58;;;22.20;99.90;;;;;;5090838;28;20197;-75
2021/08/19 09:00:06;;;;;;;5.45;3.58;;;22.30;99.90;;;;;;5091341;28;20213;-75
2021/08/19 09:02:33;;;;;;;5.43;3.58;;;22.30;99.90;;;;;;5090137;28;20197;-76
2021/08/19 09:05:16;;;;;;;8.02;3.35;;;22.60;99.90;;;;;;5091353;28;20260;-76
2021/08/19 09:07:44;;;;;;;3.78;3.40;;;22.20;99.90;;;;;;5091863;28;20209;-77
2021/08/19 09:10:13;;;;;;;7.50;3.70;;;22.90;99.90;;;;;;5093852;28;20231;-76
2021/08/19 09:12:41;;;;;;;6.20;3.58;;;23.30;99.90;;;;;;5090601;28;20808;-76
2021/08/19 09:15:11;;;;;;;4.45;3.70;;;23.70;99.90;;;;;;5091027;28;20205;-77
2021/08/19 09:17:43;;;;;;;5.47;3.47;;;23.80;99.90;;;;;;5090962;28;20997;-77
2021/08/19 09:20:11;;;;;;;4.53;4.05;;;24.20;99.90;;;;;;5090951;28;20636;-77
2021/08/19 09:23:00;;;;;;;8.30;3.90;;;24.80;99.90;;;;;;5090539;28;20356;-77
2021/08/19 09:25:34;;;;;;;5.20;3.30;;;24.40;99.90;;;;;;5086549;28;20213;-77
2021/08/19 09:28:11;;;;;;;5.53;3.40;;;24.10;99.90;;;;;;5090139;28;20625;-77
2021/08/19 09:30:40;;;;;;;6.28;3.88;;;23.20;99.90;;;;;;5090651;28;20213;-76
2021/08/19 09:33:08;;;;;;;5.45;3.55;;;22.50;99.90;;;;;;5090522;28;20232;-77
2021/08/19 09:35:36;;;;;;;3.58;3.28;;;23.00;99.90;;;;;;5090519;28;20213;-77
2021/08/19 09:38:08;;;;;;;5.10;3.58;;;24.20;99.90;;;;;;5090496;28;20263;-77
2021/08/19 09:40:36;;;;;;;4.00;3.60;;;24.90;99.90;;;;;;5090240;28;20629;-76
2021/08/19 09:43:03;;;;;;;4.38;3.97;;;25.70;99.90;;;;;;5098874;28;20213;-76
2021/08/19 09:45:30;;;;;;;5.47;3.80;;;30.80;99.90;;;;;;5089897;28;20206;-76
2021/08/19 09:48:08;;;;;;;5.10;3.35;;;30.40;99.90;;;;;;5097938;28;20664;-76
2021/08/19 09:50:36;;;;;;;3.40;2.88;;;33.40;99.90;;;;;;5090045;28;20676;-76
2021/08/19 09:53:22;;;;;;;3.85;3.38;;;35.50;99.90;;;;;;5099188;28;20262;-77
2021/08/19 09:55:51;;;;;;;3.80;3.50;;;32.30;99.90;;;;;;5092841;28;20206;-77
2021/08/19 09:58:30;;;;;;;5.22;3.70;;;30.40;99.90;;;;;;5091197;28;20245;-76
2021/08/19 10:00:57;;;;;;;5.63;3.33;;;27.40;99.90;;;;;;5101448;28;20202;-76
2021/08/19 10:03:26;;;;;;;4.43;4.00;;;30.80;99.90;;;;;;5107824;28;20672;-76
2021/08/19 10:05:53;;;;;;;4.78;3.90;;;32.30;99.90;;;;;;5106187;28;20213;-75
2021/08/19 10:08:20;;;;;;;3.88;3.50;;;32.90;99.90;;;;;;5101721;28;20256;-76
2021/08/19 10:10:55;;;;;;;5.05;3.72;;;33.20;99.90;;;;;;5106979;28;20632;-76
2021/08/19 10:13:23;;;;;;;6.53;4.30;;;33.20;99.90;;;;;;5090592;28;20200;-76
2021/08/19 10:15:52;;;;;;;4.25;3.83;;;33.60;99.90;;;;;;5090323;28;20213;-76
2021/08/19 10:18:23;;;;;;;4.13;3.70;;;30.80;99.90;;;;;;5090720;28;20292;-76
2021/08/19 10:21:09;;;;;;;4.25;3.25;;;31.90;99.90;;;;;;5090479;28;20688;-76
2021/08/19 10:23:38;;;;;;;5.30;4.32;;;32.00;99.90;;;;;;5078090;28;20205;-79
2021/08/19 10:26:10;;;;;;;3.60;3.30;;;33.80;99.90;;;;;;5089796;28;20254;-76
2021/08/19 10:28:51;;;;;;;3.90;3.50;;;34.10;99.90;;;;;;5090354;28;20221;-76
2021/08/19 10:31:40;;;;;;;4.78;3.83;;;34.40;99.90;;;;;;5091735;28;20266;-77
2021/08/19 10:34:08;;;;;;;4.57;3.55;;;34.20;99.90;;;;;;5091149;28;20208;-77
2021/08/19 10:36:52;;;;;;;3.92;3.63;;;30.90;99.90;;;;;;5089422;28;20251;-74
2021/08/19 10:39:39;;;;;;;4.28;3.55;;;26.60;99.90;;;;;;5090559;28;20205;-76
2021/08/19 10:42:12;;;;;;;4.05;3.53;;;24.90;99.90;;;;;;5081083;28;20698;-78
2021/08/19 10:44:44;;;;;;;5.15;3.72;;;24.50;99.90;;;;;;5092312;28;20205;-79
2021/08/19 10:47:31;;;;;;;3.72;3.42;;;24.30;99.90;;;;;;5082903;28;20210;-79
2021/08/19 10:50:22;;;;;;;4.10;3.17;;;24.40;99.90;;;;;;5087418;28;20214;-80
2021/08/19 10:52:49;;;;;;;5.00;4.15;;;24.40;99.90;;;;;;5096840;28;20197;-80
2021/08/19 10:55:19;;;;;;;9.13;5.72;;;24.40;99.90;;;;;;5097247;28;20263;-75
2021/08/19 10:57:48;;;;;;;65.45;36.33;;;24.90;99.90;;;;;;5091437;28;20208;-77
2021/08/19 11:00:16;;;;;;;8.18;4.75;;;25.10;99.90;;;;;;5094142;28;20266;-75
2021/08/19 11:02:45;;;;;;;5.03;3.85;;;24.80;99.90;;;;;;5093138;28;20209;-76
2021/08/19 11:05:13;;;;;;;4.38;3.75;;;24.60;99.90;;;;;;5094078;28;20209;-77
2021/08/19 11:07:50;;;;;;;6.10;5.50;;;24.70;99.90;;;;;;5093032;28;20596;-76
2021/08/19 11:10:25;;;;;;;4.35;3.75;;;24.70;99.90;;;;;;5091018;28;20267;-80
2021/08/19 11:12:53;;;;;;;4.03;3.38;;;24.60;99.90;;;;;;5090817;28;20677;-76
2021/08/19 11:15:20;;;;;;;4.95;3.20;;;24.60;99.90;;;;;;5093928;28;20635;-76
2021/08/19 11:17:52;;;;;;;4.18;3.17;;;24.80;99.90;;;;;;5089360;28;20627;-79
2021/08/19 11:20:24;;;;;;;3.60;2.92;;;24.50;99.90;;;;;;5093691;28;20604;-81
2021/08/19 11:23:05;;;;;;;4.63;3.72;;;24.40;99.90;;;;;;5093707;28;20274;-77
2021/08/19 11:25:33;;;;;;;4.35;3.60;;;24.10;99.90;;;;;;5093296;28;20255;-79
2021/08/19 11:28:12;;;;;;;5.63;3.80;;;24.40;99.90;;;;;;5094290;28;20204;-79
2021/08/19 11:30:41;;;;;;;6.32;4.22;;;24.80;99.90;;;;;;5103608;28;20289;-79
2021/08/19 11:33:13;;;;;;;3.67;3.33;;;25.10;99.90;;;;;;5108913;28;20201;-77
2021/08/19 11:35:41;;;;;;;4.18;3.47;;;25.20;99.90;;;;;;5111244;28;20205;-79
2021/08/19 11:38:13;;;;;;;4.90;4.40;;;25.30;99.90;;;;;;5110613;28;20201;-78
2021/08/19 11:40:42;;;;;;;4.03;3.50;;;24.90;99.90;;;;;;5104345;28;20286;-76
2021/08/19 11:43:27;;;;;;;4.88;3.92;;;25.10;99.90;;;;;;5092564;28;20205;-75
2021/08/19 11:46:04;;;;;;;4.28;3.90;;;25.20;99.90;;;;;;5093037;28;20247;-78
2021/08/19 11:48:31;;;;;;;5.95;3.13;;;25.10;99.90;;;;;;5092604;28;20201;-80
2021/08/19 11:51:00;;;;;;;3.78;3.45;;;25.10;99.90;;;;;;5093008;28;20209;-78
2021/08/19 11:53:27;;;;;;;4.93;3.55;;;24.70;99.90;;;;;;5104373;28;20220;-75
2021/08/19 11:55:55;;;;;;;4.15;3.15;;;24.80;99.90;;;;;;5094393;28;20201;-81
2021/08/19 11:58:24;;;;;;;4.82;3.42;;;24.60;99.90;;;;;;5092995;28;20263;-80
2021/08/19 12:01:03;;;;;;;5.75;3.60;;;24.50;99.90;;;;;;5092820;28;20318;-76
2021/08/19 12:03:30;;;;;;;4.30;3.50;;;24.70;99.90;;;;;;5092378;28;20201;-77
2021/08/19 12:06:03;;;;;;;4.13;3.70;;;24.70;99.90;;;;;;5094457;28;20309;-77
2021/08/19 12:08:30;;;;;;;4.35;3.72;;;24.70;99.90;;;;;;5092069;28;20220;-75
2021/08/19 12:10:59;;;;;;;4.57;3.55;;;24.80;99.90;;;;;;5094649;28;20646;-80
2021/08/19 12:13:28;;;;;;;3.33;3.03;;;25.20;99.90;;;;;;5091960;28;20262;-77
2021/08/19 12:15:55;;;;;;;3.40;3.05;;;25.10;99.90;;;;;;5092199;28;20202;-77
2021/08/19 12:18:25;;;;;;;3.90;3.45;;;24.80;99.90;;;;;;5092260;28;20255;-74
2021/08/19 12:20:53;;;;;;;3.72;3.35;;;24.90;99.90;;;;;;5106571;28;20209;-79
2021/08/19 12:23:22;;;;;;;3.67;3.38;;;24.80;99.90;;;;;;5106177;28;20248;-80
2021/08/19 12:25:49;;;;;;;5.15;4.13;;;24.60;99.90;;;;;;5110743;28;20205;-75
2021/08/19 12:28:17;;;;;;;4.60;3.55;;;24.60;99.90;;;;;;5106673;28;20322;-78
2021/08/19 12:30:58;;;;;;;4.72;3.40;;;24.50;99.90;;;;;;5091586;28;20237;-75
2021/08/19 12:33:35;;;;;;;5.10;4.00;;;24.40;99.90;;;;;;5091412;28;20746;-76
2021/08/19 12:36:13;;;;;;;6.32;3.85;;;24.60;99.90;;;;;;5091883;28;20213;-77
2021/08/19 12:38:40;;;;;;;4.43;3.13;;;25.00;99.90;;;;;;5079563;28;20205;-79
2021/08/19 12:41:19;;;;;;;3.80;3.17;;;24.70;99.90;;;;;;5092359;28;20213;-80
2021/08/19 12:43:47;;;;;;;6.40;3.95;;;24.40;99.90;;;;;;5080802;28;20209;-80
2021/08/19 12:46:15;;;;;;;3.45;3.15;;;24.50;99.90;;;;;;5101550;28;20205;-77
2021/08/19 12:48:44;;;;;;;3.67;3.38;;;24.80;99.90;;;;;;5104725;28;20677;-79
2021/08/19 12:51:23;;;;;;;6.00;3.40;;;24.80;99.90;;;;;;5109997;28;20240;-80
2021/08/19 12:54:04;;;;;;;6.32;3.85;;;25.10;99.90;;;;;;5109776;28;20208;-75